createdAt,value
2019-05-21T00:01:38.846Z,14.60
2019-05-21T00:04:08.366Z,14.60
2019-05-21T00:06:37.893Z,14.60
2019-05-21T00:09:07.429Z,14.60
2019-05-21T00:11:36.890Z,14.70
2019-05-21T00:14:06.396Z,14.70
2019-05-21T00:16:35.851Z,14.70
2019-05-21T00:19:05.279Z,14.70
2019-05-21T00:21:34.791Z,14.70
2019-05-21T00:24:04.217Z,14.70
2019-05-21T00:26:33.682Z,14.70
2019-05-21T00:29:38.926Z,14.70
2019-05-21T00:32:25.033Z,14.60
2019-05-21T00:35:44.673Z,14.60
2019-05-21T00:38:52.032Z,14.50
2019-05-21T00:41:57.429Z,14.50
2019-05-21T00:44:27.054Z,14.50
2019-05-21T00:46:56.628Z,14.50
2019-05-21T00:49:26.071Z,14.50
2019-05-21T00:52:07.149Z,14.50
2019-05-21T00:54:26.705Z,14.50
2019-05-21T00:56:56.255Z,14.50
2019-05-21T00:59:25.733Z,14.50
2019-05-21T01:01:55.171Z,14.50
2019-05-21T01:04:24.572Z,14.50
2019-05-21T01:06:54.005Z,14.50
2019-05-21T01:09:23.486Z,14.60
2019-05-21T01:11:52.919Z,14.60
2019-05-21T01:14:22.432Z,14.60
2019-05-21T01:16:51.900Z,14.50
2019-05-21T01:19:21.380Z,14.50
2019-05-21T01:21:50.890Z,14.50
2019-05-21T01:24:20.400Z,14.50
2019-05-21T01:26:49.894Z,14.50
2019-05-21T01:29:19.305Z,14.50
2019-05-21T01:31:51.238Z,14.50
2019-05-21T01:34:20.678Z,14.50
2019-05-21T01:36:50.219Z,14.50
2019-05-21T01:39:19.686Z,14.40
2019-05-21T01:41:49.250Z,14.50
2019-05-21T01:44:18.705Z,14.40
2019-05-21T01:46:48.117Z,14.40
2019-05-21T01:49:17.677Z,14.40
2019-05-21T01:51:47.177Z,14.40
2019-05-21T01:54:16.618Z,14.40
2019-05-21T01:56:46.087Z,14.40
2019-05-21T01:59:15.820Z,14.40
2019-05-21T02:01:45.337Z,14.40
2019-05-21T02:04:14.834Z,14.40
2019-05-21T02:06:44.690Z,14.40
2019-05-21T02:09:17.143Z,14.40
2019-05-21T02:11:46.647Z,14.40
2019-05-21T02:14:16.172Z,14.40
2019-05-21T02:16:45.581Z,14.40
2019-05-21T02:19:15.255Z,14.30
2019-05-21T02:21:44.907Z,14.30
2019-05-21T02:24:14.727Z,14.40
2019-05-21T02:26:44.205Z,14.30
2019-05-21T02:29:13.738Z,14.30
2019-05-21T02:31:43.220Z,14.30
2019-05-21T02:34:12.756Z,14.30
2019-05-21T02:36:42.233Z,14.30
2019-05-21T02:39:11.729Z,14.30
2019-05-21T02:41:41.241Z,14.30
2019-05-21T02:44:10.725Z,14.30
2019-05-21T02:46:40.148Z,14.30
2019-05-21T02:49:09.908Z,14.30
2019-05-21T02:51:39.409Z,14.30
2019-05-21T02:54:08.916Z,14.30
2019-05-21T02:56:38.521Z,14.30
2019-05-21T02:59:08.021Z,14.30
2019-05-21T03:01:46.219Z,14.30
2019-05-21T03:04:15.617Z,14.30
2019-05-21T03:06:45.138Z,14.30
2019-05-21T03:09:14.658Z,14.20
2019-05-21T03:11:44.223Z,14.20
2019-05-21T03:14:13.784Z,14.10
2019-05-21T03:16:43.256Z,14.10
2019-05-21T03:19:16.552Z,14.10
2019-05-21T03:21:43.907Z,14.00
2019-05-21T03:24:13.439Z,14.00
2019-05-21T03:26:42.869Z,14.00
2019-05-21T03:29:12.346Z,14.00
2019-05-21T03:31:41.749Z,14.00
2019-05-21T03:34:11.313Z,13.90
2019-05-21T03:36:40.771Z,13.90
2019-05-21T03:39:10.255Z,13.90
2019-05-21T03:41:39.765Z,13.90
2019-05-21T03:44:09.330Z,13.90
2019-05-21T03:46:38.792Z,13.80
2019-05-21T03:49:08.230Z,13.80
2019-05-21T03:51:38.081Z,13.80
2019-05-21T03:54:07.490Z,13.80
2019-05-21T03:56:37.056Z,13.80
2019-05-21T03:59:06.579Z,13.80
2019-05-21T04:01:36.049Z,13.80
2019-05-21T04:04:05.535Z,13.80
2019-05-21T04:06:50.594Z,13.70
2019-05-21T04:09:07.779Z,13.70
2019-05-21T04:11:37.301Z,13.70
2019-05-21T04:14:06.847Z,13.70
2019-05-21T04:16:47.259Z,13.80
2019-05-21T04:19:23.074Z,13.70
2019-05-21T04:21:52.583Z,13.70
2019-05-21T04:24:22.030Z,13.80
2019-05-21T04:26:51.541Z,13.80
2019-05-21T04:29:21.062Z,13.80
2019-05-21T04:31:50.499Z,13.80
2019-05-21T04:34:20.091Z,13.80
2019-05-21T04:36:49.514Z,13.80
2019-05-21T04:39:18.955Z,13.80
2019-05-21T04:41:49.940Z,13.80
2019-05-21T04:44:19.494Z,13.80
2019-05-21T04:46:49.371Z,13.70
2019-05-21T04:49:19.970Z,13.70
2019-05-21T04:51:49.810Z,13.70
2019-05-21T04:54:21.790Z,13.70
2019-05-21T04:56:51.275Z,13.80
2019-05-21T04:59:20.962Z,13.80
2019-05-21T05:01:50.540Z,13.80
2019-05-21T05:04:21.636Z,13.70
2019-05-21T05:06:51.631Z,13.70
2019-05-21T05:09:21.160Z,13.80
2019-05-21T05:11:50.657Z,13.80
2019-05-21T05:14:20.154Z,13.80
2019-05-21T05:16:49.657Z,13.80
2019-05-21T05:19:19.632Z,13.80
2019-05-21T05:21:49.145Z,13.70
2019-05-21T05:24:18.557Z,13.70
2019-05-21T05:26:48.258Z,13.70
2019-05-21T05:29:17.740Z,13.70
2019-05-21T05:31:47.241Z,13.70
2019-05-21T05:34:16.897Z,13.70
2019-05-21T05:36:46.318Z,13.70
2019-05-21T05:39:16.629Z,13.70
2019-05-21T05:41:46.091Z,13.60
2019-05-21T05:44:15.523Z,13.60
2019-05-21T05:46:44.936Z,13.60
2019-05-21T05:49:19.849Z,13.40
2019-05-21T05:51:49.371Z,13.40
2019-05-21T05:54:18.893Z,13.40
2019-05-21T05:56:48.394Z,13.40
2019-05-21T05:59:17.799Z,13.40
2019-05-21T06:01:47.308Z,13.50
2019-05-21T06:04:16.891Z,13.40
2019-05-21T06:06:46.489Z,13.50
2019-05-21T06:09:15.970Z,13.50
2019-05-21T06:11:45.409Z,13.50
2019-05-21T06:14:16.531Z,13.40
2019-05-21T06:16:46.292Z,13.50
2019-05-21T06:19:15.785Z,13.50
2019-05-21T06:21:45.217Z,13.50
2019-05-21T06:24:14.475Z,13.50
2019-05-21T06:26:43.697Z,13.60
2019-05-21T06:29:12.977Z,13.60
2019-05-21T06:31:42.381Z,13.50
2019-05-21T06:34:11.625Z,13.40
2019-05-21T06:36:40.839Z,13.40
2019-05-21T06:39:10.122Z,13.40
2019-05-21T06:41:39.357Z,13.40
2019-05-21T06:44:08.759Z,13.30
2019-05-21T06:46:38.107Z,13.40
2019-05-21T06:49:07.415Z,13.30
2019-05-21T06:51:36.771Z,13.40
2019-05-21T06:54:06.169Z,13.30
2019-05-21T06:56:35.666Z,13.20
2019-05-21T06:59:04.957Z,13.10
2019-05-21T07:01:34.235Z,13.20
2019-05-21T07:04:03.567Z,13.30
2019-05-21T07:06:32.937Z,13.40
2019-05-21T07:09:02.357Z,13.40
2019-05-21T07:11:31.759Z,13.30
2019-05-21T07:14:01.052Z,13.40
2019-05-21T07:16:30.518Z,13.40
2019-05-21T07:18:59.880Z,13.50
2019-05-21T07:21:29.718Z,13.60
2019-05-21T07:23:59.010Z,13.60
2019-05-21T07:26:28.344Z,13.60
2019-05-21T07:28:57.842Z,13.70
2019-05-21T07:31:27.236Z,13.60
2019-05-21T07:33:56.436Z,13.60
2019-05-21T07:36:25.739Z,13.70
2019-05-21T07:38:55.348Z,13.70
2019-05-21T07:41:24.632Z,13.60
2019-05-21T07:43:53.868Z,13.70
2019-05-21T07:46:23.270Z,13.70
2019-05-21T07:48:52.493Z,13.80
2019-05-21T07:51:21.721Z,13.70
2019-05-21T07:53:50.995Z,13.80
2019-05-21T07:56:20.219Z,13.80
2019-05-21T07:58:49.519Z,13.80
2019-05-21T08:01:18.740Z,13.80
2019-05-21T08:03:48.048Z,13.80
2019-05-21T08:06:17.247Z,13.90
2019-05-21T08:08:46.547Z,14.00
2019-05-21T08:11:16.009Z,14.00
2019-05-21T08:13:45.411Z,14.00
2019-05-21T08:16:14.699Z,14.00
2019-05-21T08:18:44.044Z,14.00
2019-05-21T08:21:13.330Z,14.10
2019-05-21T08:23:42.553Z,14.10
2019-05-21T08:26:11.961Z,14.10
2019-05-21T08:28:41.304Z,13.90
2019-05-21T08:31:10.645Z,13.90
2019-05-21T08:33:39.950Z,13.90
2019-05-21T08:36:09.301Z,13.90
2019-05-21T08:38:38.645Z,13.90
2019-05-21T08:41:07.886Z,13.80
2019-05-21T08:43:37.271Z,13.90
2019-05-21T08:46:06.524Z,14.00
2019-05-21T08:48:36.088Z,13.90
2019-05-21T08:51:05.503Z,13.90
2019-05-21T08:53:34.837Z,13.70
2019-05-21T08:56:04.270Z,13.80
2019-05-21T08:58:33.475Z,13.90
2019-05-21T09:01:02.700Z,14.00
2019-05-21T09:03:32.074Z,14.00
2019-05-21T09:06:01.281Z,14.10
2019-05-21T09:08:30.610Z,14.10
2019-05-21T09:10:59.887Z,14.10
2019-05-21T09:13:29.242Z,14.00
2019-05-21T09:15:58.955Z,14.10
2019-05-21T09:18:28.386Z,14.10
2019-05-21T09:20:57.753Z,14.20
2019-05-21T09:23:27.016Z,14.20
2019-05-21T09:25:56.267Z,14.20
2019-05-21T09:28:25.495Z,14.20
2019-05-21T09:30:55.184Z,14.20
2019-05-21T09:33:24.412Z,14.30
2019-05-21T09:35:53.733Z,14.30
2019-05-21T09:38:23.027Z,14.30
2019-05-21T09:40:52.514Z,14.30
2019-05-21T09:43:24.517Z,14.40
2019-05-21T09:45:53.722Z,14.40
2019-05-21T09:48:22.998Z,14.50
2019-05-21T09:50:52.224Z,14.50
2019-05-21T09:53:21.533Z,14.50
2019-05-21T09:55:50.980Z,14.60
2019-05-21T09:58:29.658Z,14.60
2019-05-21T10:01:12.954Z,14.70
2019-05-21T10:03:43.575Z,14.80
2019-05-21T10:06:12.981Z,14.80
2019-05-21T10:08:42.194Z,14.80
2019-05-21T10:11:11.604Z,14.80
2019-05-21T10:13:40.975Z,14.70
2019-05-21T10:16:10.374Z,14.70
2019-05-21T10:18:39.604Z,14.70
2019-05-21T10:21:08.952Z,14.70
2019-05-21T10:23:38.310Z,14.80
2019-05-21T10:26:07.660Z,14.80
2019-05-21T10:28:36.957Z,14.80
2019-05-21T10:31:06.317Z,14.90
2019-05-21T10:33:35.629Z,14.80
2019-05-21T10:36:05.238Z,14.60
2019-05-21T10:38:34.522Z,14.50
2019-05-21T10:41:03.828Z,14.60
2019-05-21T10:43:33.165Z,14.70
2019-05-21T10:46:02.395Z,14.70
2019-05-21T10:48:31.755Z,14.80
2019-05-21T10:51:01.137Z,14.70
2019-05-21T10:53:30.435Z,14.70
2019-05-21T10:55:59.747Z,14.80
2019-05-21T10:58:29.020Z,14.90
2019-05-21T11:01:05.652Z,14.90
2019-05-21T11:04:02.985Z,14.90
2019-05-21T11:06:32.317Z,14.90
2019-05-21T11:09:01.698Z,14.90
2019-05-21T11:11:30.982Z,14.90
2019-05-21T11:14:00.279Z,14.90
2019-05-21T11:16:29.587Z,15.00
2019-05-21T11:18:58.895Z,15.00
2019-05-21T11:21:28.186Z,14.90
2019-05-21T11:23:57.709Z,14.80
2019-05-21T11:26:27.475Z,14.90
2019-05-21T11:28:56.815Z,14.80
2019-05-21T11:31:26.105Z,14.90
2019-05-21T11:33:55.672Z,14.90
2019-05-21T11:36:25.100Z,14.90
2019-05-21T11:38:54.381Z,15.00
2019-05-21T11:41:23.688Z,15.00
2019-05-21T11:43:52.900Z,15.00
2019-05-21T11:46:22.138Z,15.00
2019-05-21T11:48:51.375Z,15.10
2019-05-21T11:51:20.672Z,15.10
2019-05-21T11:53:49.985Z,15.10
2019-05-21T11:56:19.286Z,15.10
2019-05-21T11:58:48.587Z,15.00
2019-05-21T12:01:17.876Z,15.00
2019-05-21T12:03:47.178Z,15.10
2019-05-21T12:06:16.560Z,15.00
2019-05-21T12:08:56.027Z,15.00
2019-05-21T12:11:17.125Z,15.00
2019-05-21T12:13:46.781Z,15.00
2019-05-21T12:16:15.980Z,15.00
2019-05-21T12:18:45.404Z,15.10
2019-05-21T12:21:14.702Z,15.10
2019-05-21T12:23:44.108Z,15.10
2019-05-21T12:26:13.413Z,15.20
2019-05-21T12:28:42.786Z,15.20
2019-05-21T12:31:12.183Z,15.20
2019-05-21T12:33:41.470Z,15.20
2019-05-21T12:36:10.872Z,15.20
2019-05-21T12:38:40.102Z,15.20
2019-05-21T12:41:13.204Z,15.20
2019-05-21T12:43:40.291Z,15.20
2019-05-21T12:46:09.673Z,15.20
2019-05-21T12:48:38.936Z,15.30
2019-05-21T12:51:08.354Z,15.20
2019-05-21T12:53:37.918Z,15.10
2019-05-21T12:56:07.290Z,15.10
2019-05-21T12:58:36.586Z,15.20
2019-05-21T13:01:05.933Z,15.10
2019-05-21T13:03:35.231Z,15.10
2019-05-21T13:06:04.865Z,15.00
2019-05-21T13:08:34.353Z,15.00
2019-05-21T13:11:03.772Z,15.10
2019-05-21T13:13:33.096Z,15.10
2019-05-21T13:16:03.056Z,15.20
2019-05-21T13:18:32.394Z,15.30
2019-05-21T13:21:01.653Z,15.40
2019-05-21T13:23:30.892Z,15.50
2019-05-21T13:26:00.120Z,15.50
2019-05-21T13:28:29.351Z,15.50
2019-05-21T13:30:58.735Z,15.60
2019-05-21T13:33:28.001Z,15.60
2019-05-21T13:35:57.381Z,15.60
2019-05-21T13:38:27.598Z,15.70
2019-05-21T13:40:58.102Z,15.70
2019-05-21T13:43:27.584Z,15.60
2019-05-21T13:45:56.989Z,15.60
2019-05-21T13:48:26.274Z,15.60
2019-05-21T13:50:55.696Z,15.60
2019-05-21T13:53:24.974Z,15.60
2019-05-21T13:55:54.352Z,15.50
2019-05-21T13:58:23.754Z,15.50
2019-05-21T14:00:54.700Z,15.60
2019-05-21T14:03:24.096Z,15.60
2019-05-21T14:05:53.356Z,15.50
2019-05-21T14:08:22.649Z,15.50
2019-05-21T14:10:51.918Z,15.50
2019-05-21T14:13:21.416Z,15.60
2019-05-21T14:15:50.714Z,15.60
2019-05-21T14:18:19.960Z,15.60
2019-05-21T14:20:49.214Z,15.60
2019-05-21T14:23:18.407Z,15.60
2019-05-21T14:25:47.635Z,15.60
2019-05-21T14:28:16.989Z,15.60
2019-05-21T14:30:46.314Z,15.60
2019-05-21T14:33:15.693Z,15.60
2019-05-21T14:35:44.890Z,15.70
2019-05-21T14:38:14.135Z,15.70
2019-05-21T14:40:43.434Z,15.80
2019-05-21T14:43:12.750Z,15.80
2019-05-21T14:45:42.112Z,15.80
2019-05-21T14:48:11.456Z,15.80
2019-05-21T14:50:40.738Z,15.80
2019-05-21T14:53:10.170Z,15.90
2019-05-21T14:55:39.422Z,15.90
2019-05-21T14:58:08.750Z,16.00
2019-05-21T15:00:38.596Z,16.00
2019-05-21T15:03:23.940Z,16.00
2019-05-21T15:05:38.947Z,16.00
2019-05-21T15:08:08.260Z,16.00
2019-05-21T15:10:47.959Z,16.10
2019-05-21T15:13:08.710Z,16.10
2019-05-21T15:15:37.967Z,16.10
2019-05-21T15:18:07.403Z,16.10
2019-05-21T15:20:47.690Z,16.00
2019-05-21T15:23:17.129Z,16.00
2019-05-21T15:25:46.405Z,15.90
2019-05-21T15:28:15.794Z,15.80
2019-05-21T15:30:45.170Z,15.80
2019-05-21T15:33:14.606Z,15.80
2019-05-21T15:35:43.898Z,15.80
2019-05-21T15:38:13.507Z,15.80
2019-05-21T15:40:43.088Z,15.70
2019-05-21T15:43:12.430Z,15.70
2019-05-21T15:45:41.742Z,15.70
2019-05-21T15:48:11.073Z,15.60
2019-05-21T15:50:40.443Z,15.60
2019-05-21T15:53:09.972Z,15.60
2019-05-21T15:55:39.287Z,15.60
2019-05-21T15:58:08.624Z,15.50
2019-05-21T16:00:37.968Z,15.50
2019-05-21T16:03:07.487Z,15.60
2019-05-21T16:05:36.932Z,15.50
2019-05-21T16:08:06.226Z,15.50
2019-05-21T16:10:35.992Z,15.50
2019-05-21T16:13:05.260Z,15.50
2019-05-21T16:15:34.823Z,15.50
2019-05-21T16:18:04.316Z,15.50
2019-05-21T16:20:33.846Z,15.50
2019-05-21T16:23:03.250Z,15.50
2019-05-21T16:25:32.692Z,15.50
2019-05-21T16:28:02.088Z,15.40
2019-05-21T16:30:31.470Z,15.40
2019-05-21T16:33:00.705Z,15.40
2019-05-21T16:35:30.329Z,15.40
2019-05-21T16:37:59.684Z,15.40
2019-05-21T16:40:28.970Z,15.40
2019-05-21T16:42:58.316Z,15.40
2019-05-21T16:45:27.665Z,15.40
2019-05-21T16:47:57.040Z,15.20
2019-05-21T16:50:26.339Z,15.20
2019-05-21T16:52:55.589Z,15.20
2019-05-21T16:55:24.930Z,15.20
2019-05-21T16:57:56.460Z,15.20
2019-05-21T17:00:27.076Z,15.20
2019-05-21T17:02:56.474Z,15.20
2019-05-21T17:05:25.741Z,15.10
2019-05-21T17:07:55.369Z,15.10
2019-05-21T17:10:24.855Z,15.10
2019-05-21T17:12:54.168Z,15.10
2019-05-21T17:15:23.447Z,15.10
2019-05-21T17:17:52.662Z,15.10
2019-05-21T17:20:21.905Z,15.10
2019-05-21T17:22:53.823Z,15.10
2019-05-21T17:25:23.127Z,15.10
2019-05-21T17:27:52.476Z,15.10
2019-05-21T17:30:22.069Z,15.00
2019-05-21T17:32:51.363Z,15.00
2019-05-21T17:35:21.520Z,15.00
2019-05-21T17:37:50.811Z,15.00
2019-05-21T17:40:20.094Z,14.90
2019-05-21T17:42:49.526Z,14.90
2019-05-21T17:45:18.845Z,14.90
2019-05-21T17:47:48.150Z,14.90
2019-05-21T17:50:17.572Z,14.90
2019-05-21T17:52:46.781Z,14.90
2019-05-21T17:55:16.394Z,14.90
2019-05-21T17:57:45.779Z,14.80
2019-05-21T18:00:17.374Z,14.80
2019-05-21T18:02:47.063Z,14.70
2019-05-21T18:05:16.570Z,14.70
2019-05-21T18:07:46.260Z,14.70
2019-05-21T18:10:16.620Z,14.60
2019-05-21T18:12:46.187Z,14.60
2019-05-21T18:15:16.044Z,14.50
2019-05-21T18:17:46.029Z,14.50
2019-05-21T18:20:18.118Z,14.50
2019-05-21T18:22:48.507Z,14.50
2019-05-21T18:25:18.075Z,14.40
2019-05-21T18:27:47.515Z,14.40
2019-05-21T18:30:17.907Z,14.30
2019-05-21T18:32:47.673Z,14.30
2019-05-21T18:35:17.437Z,14.30
2019-05-21T18:37:46.928Z,14.30
2019-05-21T18:40:16.848Z,14.30
2019-05-21T18:42:46.221Z,14.30
2019-05-21T18:45:15.627Z,14.30
2019-05-21T18:47:44.958Z,14.30
2019-05-21T18:50:14.778Z,14.30
2019-05-21T18:52:44.080Z,14.30
2019-05-21T18:55:14.752Z,14.30
2019-05-21T18:57:43.973Z,14.30
2019-05-21T19:00:15.417Z,14.30
2019-05-21T19:02:44.719Z,14.30
2019-05-21T19:05:14.428Z,14.30
2019-05-21T19:07:43.858Z,14.30
2019-05-21T19:10:14.550Z,14.30
2019-05-21T19:12:43.855Z,14.30
2019-05-21T19:15:13.842Z,14.30
2019-05-21T19:17:43.552Z,14.30
2019-05-21T19:20:14.270Z,14.20
2019-05-21T19:22:43.937Z,14.20
2019-05-21T19:25:13.760Z,14.20
2019-05-21T19:27:43.096Z,14.20
2019-05-21T19:30:12.870Z,14.20
2019-05-21T19:32:42.423Z,14.10
2019-05-21T19:35:11.977Z,14.10
2019-05-21T19:37:41.426Z,14.10
2019-05-21T19:40:12.313Z,14.10
2019-05-21T19:42:54.261Z,14.00
2019-05-21T19:45:16.016Z,14.00
2019-05-21T19:47:45.425Z,14.00
2019-05-21T19:50:16.103Z,14.00
2019-05-21T19:52:46.167Z,14.00
2019-05-21T19:55:16.896Z,14.00
2019-05-21T19:57:48.885Z,14.00
2019-05-21T20:00:24.521Z,14.00
2019-05-21T20:02:54.603Z,14.00
2019-05-21T20:05:27.991Z,14.00
2019-05-21T20:07:58.766Z,14.00
2019-05-21T20:10:29.967Z,14.00
2019-05-21T20:13:02.987Z,14.00
2019-05-21T20:15:33.767Z,14.00
2019-05-21T20:18:09.294Z,14.00
2019-05-21T20:20:39.691Z,14.00
2019-05-21T20:23:12.360Z,14.00
2019-05-21T20:25:56.107Z,14.00
2019-05-21T20:28:16.565Z,14.00
2019-05-21T20:30:47.120Z,14.00
2019-05-21T20:33:19.767Z,14.00
2019-05-21T20:35:49.455Z,14.00
2019-05-21T20:38:21.741Z,13.90
2019-05-21T20:40:53.015Z,13.90
2019-05-21T20:45:51.755Z,13.90
2019-05-21T20:48:23.915Z,13.90
2019-05-21T20:50:53.290Z,13.90
2019-05-21T20:53:22.763Z,13.80
2019-05-21T20:55:54.160Z,13.80
2019-05-21T20:58:23.786Z,13.80
2019-05-21T21:01:02.938Z,13.80
2019-05-21T21:03:33.902Z,13.80
2019-05-21T21:06:07.805Z,13.80
2019-05-21T21:08:40.038Z,13.80
2019-05-21T21:11:11.761Z,13.80
2019-05-21T21:13:41.221Z,13.80
2019-05-21T21:16:12.107Z,13.80
2019-05-21T21:18:42.783Z,13.80
2019-05-21T21:21:12.190Z,13.80
2019-05-21T21:23:43.842Z,13.80
2019-05-21T21:26:14.075Z,13.80
2019-05-21T21:28:45.329Z,13.80
2019-05-21T21:31:15.517Z,13.80
2019-05-21T21:33:46.352Z,13.80
2019-05-21T21:36:16.430Z,13.80
2019-05-21T21:38:47.229Z,13.80
2019-05-21T21:41:19.796Z,13.80
2019-05-21T21:43:49.532Z,13.80
2019-05-21T21:46:20.743Z,13.70
2019-05-21T21:48:50.844Z,13.70
2019-05-21T21:51:21.363Z,13.70
2019-05-21T21:53:51.514Z,13.70
2019-05-21T21:56:21.842Z,13.80
2019-05-21T21:58:51.506Z,13.80
2019-05-21T22:01:55.614Z,13.80
2019-05-21T22:04:38.428Z,13.80
2019-05-21T22:07:07.946Z,13.80
2019-05-21T22:09:40.098Z,13.80
2019-05-21T22:12:12.642Z,13.80
2019-05-21T22:14:51.786Z,13.80
2019-05-21T22:17:15.530Z,13.70
2019-05-21T22:19:45.154Z,13.70
2019-05-21T22:22:14.660Z,13.70
2019-05-21T22:24:44.312Z,13.70
2019-05-21T22:27:13.679Z,13.70
2019-05-21T22:29:45.198Z,13.70
2019-05-21T22:32:16.614Z,13.70
2019-05-21T22:34:45.559Z,13.60
2019-05-21T22:37:16.851Z,13.60
2019-05-21T22:39:47.754Z,13.60
2019-05-21T22:42:17.935Z,13.60
2019-05-21T22:44:47.907Z,13.60
2019-05-21T22:47:17.318Z,13.50
2019-05-21T22:49:46.690Z,13.50
2019-05-21T22:52:16.123Z,13.50
2019-05-21T22:54:45.412Z,13.60
2019-05-21T22:57:14.624Z,13.50
2019-05-21T22:59:44.040Z,13.50
2019-05-21T23:02:17.860Z,13.50
2019-05-21T23:04:47.172Z,13.50
2019-05-21T23:07:16.871Z,13.50
2019-05-21T23:09:46.083Z,13.50
2019-05-21T23:12:15.603Z,13.50
2019-05-21T23:14:44.956Z,13.60
2019-05-21T23:17:14.348Z,13.60
2019-05-21T23:19:45.043Z,13.60
2019-05-21T23:22:16.245Z,13.60
2019-05-21T23:24:46.282Z,13.60
2019-05-21T23:27:17.283Z,13.60
2019-05-21T23:29:46.601Z,13.60
2019-05-21T23:32:16.536Z,13.60
2019-05-21T23:34:46.369Z,13.60
2019-05-21T23:37:20.396Z,13.60
2019-05-21T23:39:52.047Z,13.60
2019-05-21T23:42:29.539Z,13.50
2019-05-21T23:44:52.661Z,13.50
2019-05-21T23:47:23.268Z,13.50
2019-05-21T23:49:52.642Z,13.50
2019-05-21T23:52:22.352Z,13.50
2019-05-21T23:54:51.782Z,13.50
2019-05-21T23:57:27.172Z,13.50
2019-05-21T23:59:57.345Z,13.50
